Time;durP1;ratioP1;P1;durP2;ratioP2;P2;SDS_P1;SDS_P2;PMS_P1;PMS_P2;Temp;Humidity;BMP_temperature;BMP_pressure;BME280_temperature;BME280_humidity;BME280_pressure;Samples;Min_cycle;Max_cycle;Signal;HPM_P1;HPM_P2
2020/12/16 10:16:35;;;;;;;48.53;32.07;;;;;;;8.44;99.39;99243.88;5148857;27;20535;-84
2020/12/16 10:19:02;;;;;;;38.33;26.60;;;;;;;10.19;98.35;99235.72;5159381;22;39072;-84
2020/12/16 10:21:30;;;;;;;34.57;25.73;;;;;;;10.53;93.14;99207.38;5027401;28;42131;-84
2020/12/16 10:23:57;;;;;;;31.57;25.37;;;;;;;10.82;89.41;99230.41;5044256;28;42468;-82
2020/12/16 10:26:24;;;;;;;32.40;25.90;;;;;;;10.92;86.33;99234.22;5044231;28;42887;-83
2020/12/16 10:28:51;;;;;;;31.20;25.07;;;;;;;11.10;83.69;99234.97;5060872;28;41681;-80
2020/12/16 10:31:18;;;;;;;29.20;23.07;;;;;;;10.99;82.63;99222.34;5135204;22;42105;-81
2020/12/16 10:33:46;;;;;;;27.67;22.53;;;;;;;10.86;81.88;99207.25;5064899;28;43422;-82
2020/12/16 10:36:13;;;;;;;29.43;23.13;;;;;;;10.86;81.03;99221.34;5064174;28;42583;-83
2020/12/16 10:38:40;;;;;;;29.50;23.30;;;;;;;10.58;80.00;99197.38;5061240;28;40815;-85
2020/12/16 10:41:17;;;;;;;;;;;;;;;;;;;;;
2020/12/16 10:43:49;;;;;;;30.37;23.57;;;;;;;10.78;79.36;99228.88;5063224;28;20232;-81
2020/12/16 10:46:16;;;;;;;27.87;23.10;;;;;;;10.88;78.98;99219.44;5080573;28;42558;-82
2020/12/16 10:48:44;;;;;;;32.27;23.90;;;;;;;11.16;78.04;99224.84;5080607;28;41746;-82
2020/12/16 10:51:12;;;;;;;28.13;23.13;;;;;;;11.41;75.54;99210.97;5046557;28;42444;-82
2020/12/16 10:53:39;;;;;;;28.07;23.53;;;;;;;11.78;74.42;99214.06;5134032;22;44146;-83
2020/12/16 10:56:07;;;;;;;30.20;23.40;;;;;;;12.71;72.14;99222.28;5066825;28;42873;-83
2020/12/16 10:58:35;;;;;;;28.20;22.73;;;;;;;13.47;69.32;99227.84;5066804;28;39838;-81
2020/12/16 11:01:03;;;;;;;28.13;22.77;;;;;;;14.10;65.96;99220.75;5049978;28;43884;-84
2020/12/16 11:03:30;;;;;;;26.40;22.00;;;;;;;14.55;63.99;99227.31;5049960;28;43722;-82
2020/12/16 11:05:57;;;;;;;28.43;23.37;;;;;;;14.73;62.35;99232.13;5175189;22;42276;-82
2020/12/16 11:08:24;;;;;;;28.17;23.37;;;;;;;14.51;63.40;99213.34;5046218;28;40214;-80
2020/12/16 11:10:51;;;;;;;25.33;21.33;;;;;;;14.40;63.67;99193.78;5045949;28;41780;-82
2020/12/16 11:13:19;;;;;;;23.10;20.63;;;;;;;14.97;61.45;99186.78;5029675;28;43254;-81
2020/12/16 11:15:47;;;;;;;25.83;20.73;;;;;;;16.15;58.32;99234.63;5045861;28;42202;-82
2020/12/16 11:18:14;;;;;;;24.13;21.17;;;;;;;16.29;56.23;99230.84;5128633;22;41601;-79
2020/12/16 11:20:41;;;;;;;26.60;22.03;;;;;;;16.46;56.06;99233.00;5045575;28;42398;-81
2020/12/16 11:23:08;;;;;;;23.20;20.27;;;;;;;17.04;54.31;99229.16;5046162;28;43195;-80
2020/12/16 11:25:36;;;;;;;23.33;20.00;;;;;;;18.62;50.97;99246.75;5061583;28;42655;-83
2020/12/16 11:28:03;;;;;;;22.07;19.67;;;;;;;19.80;48.35;99255.56;5123095;22;40967;-83
2020/12/16 11:30:30;;;;;;;21.33;18.97;;;;;;;20.52;46.13;99268.41;5051186;28;41161;-83
2020/12/16 11:32:58;;;;;;;22.37;20.03;;;;;;;19.25;47.72;99239.22;5052297;28;44568;-83
2020/12/16 11:35:25;;;;;;;22.10;18.07;;;;;;;17.94;49.97;99202.69;5068566;28;41966;-80
2020/12/16 11:37:52;;;;;;;23.80;20.13;;;;;;;17.26;51.66;99212.13;5052711;28;40451;-83
2020/12/16 11:40:20;;;;;;;25.07;20.97;;;;;;;16.68;52.87;99206.28;5159678;22;42245;-82
2020/12/16 11:42:47;;;;;;;23.27;20.17;;;;;;;16.19;54.29;99187.16;5089561;28;43530;-80
2020/12/16 11:45:14;;;;;;;23.70;20.27;;;;;;;16.16;54.66;99215.81;5088280;28;41837;-80
2020/12/16 11:47:42;;;;;;;26.27;21.93;;;;;;;16.05;54.56;99215.81;5072416;28;40201;-83
2020/12/16 11:50:11;;;;;;;27.10;20.67;;;;;;;15.98;55.44;99195.88;5072570;28;42690;-79
2020/12/16 11:52:38;;;;;;;23.70;21.10;;;;;;;16.19;55.93;99192.50;5162783;22;43714;-79
2020/12/16 11:55:06;;;;;;;26.80;20.27;;;;;;;17.49;52.59;99211.03;5053660;28;42853;-83
2020/12/16 11:57:33;;;;;;;22.23;19.07;;;;;;;17.93;51.95;99206.38;5087827;28;40142;-79
2020/12/16 12:00:03;;;;;;;22.20;19.60;;;;;;;18.35;50.79;99216.97;5054207;28;43221;-81
2020/12/16 12:02:33;;;;;;;22.97;18.17;;;;;;;17.67;51.76;99208.66;5070686;28;42819;-79
2020/12/16 12:05:02;;;;;;;22.47;19.37;;;;;;;17.28;52.60;99220.88;5133794;22;44019;-82
2020/12/16 12:07:31;;;;;;;22.63;19.70;;;;;;;17.12;52.52;99209.75;5027546;28;39997;-81
2020/12/16 12:09:58;;;;;;;22.57;18.50;;;;;;;17.12;52.83;99199.06;5027108;28;42075;-80
2020/12/16 12:12:29;;;;;;;21.83;18.60;;;;;;;18.26;51.62;99213.28;5031864;28;43337;-82
2020/12/16 12:14:56;;;;;;;20.07;16.63;;;;;;;18.36;49.89;99200.75;5137006;22;42817;-83
2020/12/16 12:17:23;;;;;;;22.53;18.17;;;;;;;18.34;50.32;99209.91;5032130;28;40566;-82
2020/12/16 12:19:51;;;;;;;22.73;18.30;;;;;;;18.34;49.45;99216.13;5032160;28;41832;-85
2020/12/16 12:22:18;;;;;;;21.77;18.43;;;;;;;18.27;49.72;99177.47;5047514;28;44508;-81
2020/12/16 12:24:46;;;;;;;20.93;18.07;;;;;;;17.93;50.69;99206.38;5047731;28;41918;-83
2020/12/16 12:27:13;;;;;;;25.07;20.53;;;;;;;17.36;50.95;99196.97;5113681;23;40896;-80
2020/12/16 12:29:40;;;;;;;22.93;18.37;;;;;;;16.86;52.54;99183.34;5027900;28;41617;-81
2020/12/16 12:32:08;;;;;;;21.67;17.83;;;;;;;16.65;52.96;99163.75;5008364;28;43336;-82
2020/12/16 12:34:35;;;;;;;21.33;17.87;;;;;;;16.46;53.29;99163.50;4992236;28;44534;-80
2020/12/16 12:37:03;;;;;;;19.63;17.53;;;;;;;16.17;54.53;99160.53;5041125;28;40017;-82
2020/12/16 12:39:30;;;;;;;22.53;19.30;;;;;;;15.99;54.80;99162.84;5127100;22;42450;-80
2020/12/16 12:41:58;;;;;;;22.53;17.77;;;;;;;15.81;55.62;99167.00;5034058;28;43765;-82
2020/12/16 12:44:25;;;;;;;22.17;19.77;;;;;;;15.58;55.62;99149.28;5051646;28;43394;-80
2020/12/16 12:46:52;;;;;;;22.90;19.00;;;;;;;15.43;56.33;99161.94;5068803;28;39849;-83
2020/12/16 12:52:18;;;;;;;20.80;18.60;;;;;;;15.00;57.44;99133.22;5046848;28;42481;-83
2020/12/16 12:54:45;;;;;;;22.73;19.60;;;;;;;15.05;57.82;99156.88;5047599;28;42465;-83
2020/12/16 12:57:13;;;;;;;21.50;17.60;;;;;;;15.19;57.84;99148.69;5047763;28;39732;-83
2020/12/16 12:59:40;;;;;;;23.53;18.50;;;;;;;15.05;57.60;99131.06;5048999;28;41374;-81
2020/12/16 13:02:08;;;;;;;24.03;19.73;;;;;;;14.93;58.08;99139.16;5137146;22;44239;-80
2020/12/16 13:04:35;;;;;;;27.03;21.43;;;;;;;14.74;57.92;99132.53;5030929;28;42114;-81
2020/12/16 13:07:02;;;;;;;26.40;21.33;;;;;;;14.79;58.70;99144.66;5016069;28;40753;-80
2020/12/16 13:09:29;;;;;;;26.87;23.10;;;;;;;14.61;58.82;99123.75;5028402;28;42111;-81
2020/12/16 13:11:57;;;;;;;24.50;19.57;;;;;;;14.71;59.19;99135.41;5028031;28;43453;-82
2020/12/16 13:14:24;;;;;;;23.23;19.40;;;;;;;14.65;59.14;99119.88;5147821;22;42362;-82
2020/12/16 13:16:52;;;;;;;25.13;18.93;;;;;;;14.68;59.46;99126.81;5030866;28;40391;-82
2020/12/16 13:19:19;;;;;;;22.80;19.23;;;;;;;14.67;60.23;99125.97;5013273;28;42237;-81
2020/12/16 13:21:49;;;;;;;25.40;19.77;;;;;;;14.43;60.27;99106.47;5030475;28;42681;-82
2020/12/16 13:27:23;;;;;;;23.13;19.17;;;;;;;14.16;60.54;99100.47;4987814;28;40842;-83
2020/12/16 13:29:52;;;;;;;22.97;19.57;;;;;;;14.08;60.70;99111.69;4974436;28;44449;-82
2020/12/16 13:32:19;;;;;;;26.93;20.97;;;;;;;14.05;60.99;99121.72;4987240;28;42918;-82
2020/12/16 13:34:47;;;;;;;25.70;21.23;;;;;;;13.80;61.55;99107.50;4985315;28;42685;-81
2020/12/16 13:37:15;;;;;;;26.50;20.93;;;;;;;13.42;61.72;99074.78;5108654;22;40934;-81
2020/12/16 13:39:43;;;;;;;27.63;22.93;;;;;;;13.42;62.49;99122.66;5047931;28;42573;-80
2020/12/16 13:42:10;;;;;;;26.93;20.70;;;;;;;13.29;63.12;99122.66;5042743;28;44641;-81
2020/12/16 13:44:39;;;;;;;28.37;21.87;;;;;;;13.07;63.55;99111.78;5026922;28;42827;-79
2020/12/16 13:47:07;;;;;;;26.20;21.10;;;;;;;13.04;64.08;99112.84;5030646;28;40482;-81
2020/12/16 13:49:35;;;;;;;28.13;22.30;;;;;;;13.10;64.22;99123.06;5112459;22;41832;-80
2020/12/16 13:52:02;;;;;;;28.00;21.67;;;;;;;13.05;64.21;99114.53;5026398;28;44622;-79
2020/12/16 13:54:30;;;;;;;30.03;21.93;;;;;;;12.89;64.09;99097.94;5027272;28;43779;-79
2020/12/16 13:56:57;;;;;;;28.23;22.40;;;;;;;12.88;64.39;99110.38;5005786;28;40825;-79
2020/12/16 14:01:51;;;;;;;26.97;21.40;;;;;;;12.65;64.30;99118.19;5047295;28;44336;-79
2020/12/16 14:04:19;;;;;;;24.90;20.33;;;;;;;12.62;64.93;99126.34;5047177;28;43720;-81
2020/12/16 14:06:47;;;;;;;26.70;21.00;;;;;;;12.44;64.82;99094.75;5030859;28;41364;-79
2020/12/16 14:09:14;;;;;;;29.30;22.40;;;;;;;12.61;65.05;99130.00;5030874;28;43359;-81
2020/12/16 14:11:41;;;;;;;26.93;20.93;;;;;;;12.59;64.93;99128.28;5121284;22;44508;-81
2020/12/16 14:14:08;;;;;;;26.80;21.40;;;;;;;12.55;65.47;99132.09;5050290;28;42240;-78
2020/12/16 14:16:35;;;;;;;26.10;20.23;;;;;;;12.49;65.21;99127.16;5066957;28;40439;-80
2020/12/16 14:19:02;;;;;;;26.87;21.60;;;;;;;12.43;65.67;99127.59;5067222;28;41289;-79
2020/12/16 14:21:31;;;;;;;28.23;20.23;;;;;;;12.42;65.45;99128.53;5066668;28;43184;-80
2020/12/16 14:23:58;;;;;;;29.27;21.50;;;;;;;12.22;65.77;99108.59;5121762;22;44317;-81
2020/12/16 14:26:26;;;;;;;27.00;20.80;;;;;;;12.30;65.97;99126.69;4999493;28;41551;-79
2020/12/16 14:28:53;;;;;;;26.37;20.27;;;;;;;12.26;66.31;99138.44;5010546;28;42305;-78
2020/12/16 14:31:21;;;;;;;23.47;18.93;;;;;;;12.20;66.49;99141.50;5010747;28;43258;-83
2020/12/16 14:33:48;;;;;;;30.40;23.53;;;;;;;12.12;66.76;99133.16;5010222;28;43560;-78
2020/12/16 14:36:15;;;;;;;27.47;21.00;;;;;;;12.03;66.91;99133.78;5114000;23;42026;-84
2020/12/16 14:38:43;;;;;;;25.23;20.20;;;;;;;11.95;67.01;99136.94;5029865;28;41960;-80
2020/12/16 14:41:11;;;;;;;26.13;21.00;;;;;;;11.82;67.38;99142.16;5030277;28;44879;-80
2020/12/16 14:43:39;;;;;;;26.77;21.00;;;;;;;11.64;67.78;99132.66;5030605;28;43800;-79
2020/12/16 14:46:07;;;;;;;23.50;18.97;;;;;;;11.46;68.10;99139.09;5119774;22;41369;-80
2020/12/16 14:48:34;;;;;;;26.57;19.73;;;;;;;11.24;68.26;99125.47;5049366;28;41856;-81
2020/12/16 14:51:02;;;;;;;26.10;20.63;;;;;;;11.22;68.73;99145.91;5065785;28;43858;-78
2020/12/16 14:53:33;;;;;;;23.97;18.70;;;;;;;10.97;68.80;99131.47;5066852;28;42321;-83
2020/12/16 14:56:02;;;;;;;26.73;19.90;;;;;;;10.83;69.49;99134.09;5065837;28;40734;-78
2020/12/16 14:58:31;;;;;;;28.23;21.00;;;;;;;10.68;69.91;99140.28;5123492;22;42486;-79
2020/12/16 15:01:00;;;;;;;28.93;22.33;;;;;;;10.52;69.85;99144.75;5049076;28;44281;-80
2020/12/16 15:03:27;;;;;;;24.20;18.90;;;;;;;10.32;70.14;99138.81;5070128;28;43016;-80
2020/12/16 15:05:54;;;;;;;23.00;18.80;;;;;;;10.26;70.24;99155.03;5052503;28;41234;-80
2020/12/16 15:08:21;;;;;;;24.07;18.83;;;;;;;10.14;70.86;99160.16;5052939;28;43103;-83
2020/12/16 15:10:48;;;;;;;24.33;19.10;;;;;;;10.00;70.86;99158.28;5131899;22;44319;-78
2020/12/16 15:13:16;;;;;;;23.33;17.73;;;;;;;9.71;71.38;99134.25;5032942;28;42682;-79
2020/12/16 15:15:43;;;;;;;25.53;19.73;;;;;;;9.77;71.54;99153.41;5050080;28;40701;-78
2020/12/16 15:18:10;;;;;;;28.43;22.10;;;;;;;9.65;71.88;99158.38;5048885;28;41382;-81
2020/12/16 15:20:38;;;;;;;27.90;21.30;;;;;;;9.42;71.97;99137.63;5048901;28;42755;-80
2020/12/16 15:23:05;;;;;;;27.90;21.13;;;;;;;9.46;72.54;99157.66;5151910;22;42457;-78
2020/12/16 15:25:32;;;;;;;28.27;21.33;;;;;;;9.35;73.08;99160.03;5068899;28;40031;-80
2020/12/16 15:28:02;;;;;;;27.57;21.17;;;;;;;9.12;73.19;99133.97;5053166;28;43117;-78
2020/12/16 15:30:30;;;;;;;29.20;21.77;;;;;;;9.17;73.34;99167.13;5052980;28;43435;-81
2020/12/16 15:32:57;;;;;;;30.20;21.47;;;;;;;9.11;73.77;99167.44;5134476;22;42054;-81
2020/12/16 15:35:25;;;;;;;32.00;23.20;;;;;;;8.81;74.73;99132.03;5052649;28;40736;-79
2020/12/16 15:37:52;;;;;;;29.17;21.40;;;;;;;8.97;75.24;99169.94;5069402;28;41921;-79
2020/12/16 15:40:19;;;;;;;32.77;22.40;;;;;;;8.74;74.62;99149.97;5053170;28;43459;-79
2020/12/16 15:42:46;;;;;;;27.97;22.13;;;;;;;8.82;74.86;99176.84;5052804;28;42528;-79
2020/12/16 15:45:13;;;;;;;25.90;19.60;;;;;;;8.74;74.57;99173.75;5130892;22;41431;-78
2020/12/16 15:47:41;;;;;;;27.43;20.67;;;;;;;8.68;74.81;99173.19;5048222;28;42307;-80
2020/12/16 15:50:09;;;;;;;25.03;20.03;;;;;;;8.60;74.45;99181.50;5033237;28;43264;-80
2020/12/16 15:52:36;;;;;;;23.57;18.20;;;;;;;8.53;74.47;99177.47;5048854;28;42978;-82
2020/12/16 15:55:04;;;;;;;23.60;18.47;;;;;;;8.36;74.45;99167.72;5045502;28;39968;-81
2020/12/16 15:57:31;;;;;;;28.30;21.03;;;;;;;8.24;74.72;99157.72;5140283;23;42201;-82
2020/12/16 15:59:59;;;;;;;30.77;22.97;;;;;;;8.26;74.90;99169.91;5069621;28;42629;-83
2020/12/16 16:02:26;;;;;;;30.77;22.00;;;;;;;8.16;75.02;99165.97;5052044;28;42791;-82
2020/12/16 16:04:54;;;;;;;28.33;21.13;;;;;;;8.18;75.16;99166.75;5052718;28;41763;-82
2020/12/16 16:10:01;;;;;;;26.97;21.27;;;;;;;7.96;75.51;99166.09;5010230;28;41392;-83
2020/12/16 16:12:28;;;;;;;27.30;20.83;;;;;;;8.00;75.66;99186.13;5011679;28;43576;-82
2020/12/16 16:14:56;;;;;;;26.47;19.23;;;;;;;7.96;75.48;99189.81;5011128;28;41312;-80
2020/12/16 16:17:23;;;;;;;27.70;19.87;;;;;;;7.91;75.42;99202.38;5029275;28;42648;-81
2020/12/16 16:19:50;;;;;;;25.57;18.67;;;;;;;7.74;76.05;99173.28;5136260;22;44967;-72
2020/12/16 16:22:18;;;;;;;34.67;25.43;;;;;;;7.79;75.77;99203.75;5089706;28;42676;-81
2020/12/16 16:24:47;;;;;;;36.17;26.67;;;;;;;7.67;76.11;99182.38;5088944;28;39892;-80
2020/12/16 16:27:14;;;;;;;30.73;23.40;;;;;;;7.69;76.26;99189.28;5102281;28;44046;-79
2020/12/16 16:29:42;;;;;;;29.70;22.60;;;;;;;7.60;75.94;99180.97;5102829;28;43072;-80
2020/12/16 16:32:14;;;;;;;28.27;21.07;;;;;;;7.61;75.90;99198.47;5179587;22;42471;-80
2020/12/16 16:34:41;;;;;;;30.33;22.03;;;;;;;7.55;75.99;99199.59;5072023;28;41197;-81
2020/12/16 16:37:09;;;;;;;24.80;19.00;;;;;;;7.48;75.86;99198.19;5066712;28;42332;-82
2020/12/16 16:39:38;;;;;;;22.30;17.93;;;;;;;7.45;76.42;99195.66;5087464;28;43317;-80
2020/12/16 16:42:06;;;;;;;23.73;17.53;;;;;;;7.34;76.48;99184.75;5088569;28;42176;-79
2020/12/16 16:44:33;;;;;;;29.07;19.53;;;;;;;7.22;76.62;99178.25;5154610;22;40831;-80
2020/12/16 16:47:02;;;;;;;23.90;18.03;;;;;;;7.26;76.73;99193.00;5072388;28;42946;-82
2020/12/16 16:49:29;;;;;;;26.80;19.93;;;;;;;7.12;76.87;99188.34;5072242;28;41843;-81
2020/12/16 16:51:57;;;;;;;28.00;21.20;;;;;;;7.15;76.93;99196.09;5091230;28;42965;-80
2020/12/16 16:54:24;;;;;;;27.30;19.90;;;;;;;7.13;77.18;99207.63;5186674;22;39848;-83
2020/12/16 16:56:52;;;;;;;27.07;18.63;;;;;;;7.09;77.14;99212.16;5072338;28;42590;-80
2020/12/16 16:59:19;;;;;;;30.63;22.90;;;;;;;6.79;77.08;99177.47;5167890;22;42941;-81
2020/12/16 17:01:47;;;;;;;26.40;19.67;;;;;;;6.99;77.21;99215.25;5049872;28;42440;-81
2020/12/16 17:04:14;;;;;;;27.70;21.20;;;;;;;6.95;77.18;99218.94;5051173;28;41234;-81
2020/12/16 17:06:42;;;;;;;27.90;21.40;;;;;;;6.87;77.23;99211.34;5139351;22;41590;-79
2020/12/16 17:09:11;;;;;;;26.13;19.70;;;;;;;6.74;77.25;99203.13;5070318;28;42803;-80
2020/12/16 17:11:39;;;;;;;26.73;21.23;;;;;;;6.71;77.48;99205.88;5065243;28;42491;-79
2020/12/16 17:14:07;;;;;;;41.13;30.03;;;;;;;6.74;77.28;99224.19;5051463;28;40609;-82
2020/12/16 17:16:36;;;;;;;45.73;33.27;;;;;;;6.69;77.84;99218.22;5052762;28;40731;-81
2020/12/16 17:19:04;;;;;;;35.10;27.00;;;;;;;6.72;78.13;99233.91;5139013;22;43083;-79
2020/12/16 17:21:31;;;;;;;31.87;23.87;;;;;;;6.71;78.55;99231.31;5066032;28;43109;-79
2020/12/16 17:23:58;;;;;;;30.47;23.37;;;;;;;6.66;79.84;99228.91;5065563;28;40158;-79
2020/12/16 17:26:27;;;;;;;35.80;27.27;;;;;;;6.62;80.28;99227.31;5066505;28;42266;-79
2020/12/16 17:28:54;;;;;;;31.20;23.63;;;;;;;6.49;80.12;99215.56;5067827;28;43532;-79
2020/12/16 17:31:23;;;;;;;32.17;23.37;;;;;;;6.59;79.80;99237.09;5167423;22;41934;-79
2020/12/16 17:33:50;;;;;;;35.20;25.93;;;;;;;6.44;79.74;99212.25;5087336;28;40717;-80
2020/12/16 17:36:17;;;;;;;33.50;24.87;;;;;;;6.48;79.78;99224.38;5071231;28;41892;-79
2020/12/16 17:38:44;;;;;;;30.90;23.00;;;;;;;6.50;80.10;99227.78;5088051;28;42438;-80
2020/12/16 17:41:19;;;;;;;29.07;22.13;;;;;;;6.49;80.59;99232.19;5129886;22;42982;31
2020/12/16 17:43:47;;;;;;;29.27;21.07;;;;;;;6.41;80.88;99221.13;5004268;28;39623;-80
2020/12/16 17:46:15;;;;;;;30.47;21.27;;;;;;;6.40;80.56;99236.97;4991933;28;42755;-79
2020/12/16 17:48:43;;;;;;;23.70;18.03;;;;;;;6.44;80.83;99239.41;5007935;28;42666;-78
2020/12/16 17:51:10;;;;;;;26.17;19.67;;;;;;;6.27;80.71;99215.56;4990234;28;43528;-80
2020/12/16 17:53:38;;;;;;;28.90;20.90;;;;;;;6.40;80.89;99231.72;5127874;22;40641;-79
2020/12/16 17:56:06;;;;;;;29.50;22.90;;;;;;;6.26;80.78;99218.25;5059183;28;41780;-80
2020/12/16 17:58:33;;;;;;;31.80;23.53;;;;;;;6.34;80.37;99237.22;5045548;28;43314;-79
2020/12/16 18:01:01;;;;;;;26.47;20.03;;;;;;;6.26;80.47;99234.03;5058320;28;44176;-78
2020/12/16 18:03:28;;;;;;;26.77;19.43;;;;;;;6.24;79.97;99246.38;5034094;28;41124;-79
2020/12/16 18:05:57;;;;;;;24.50;18.57;;;;;;;6.22;80.07;99242.94;5158921;22;41371;-80
2020/12/16 18:08:25;;;;;;;23.13;17.87;;;;;;;6.17;79.53;99244.91;5070117;28;43399;-79
2020/12/16 18:10:52;;;;;;;25.23;18.07;;;;;;;6.16;79.77;99244.06;5070746;28;43165;-80
2020/12/16 18:13:19;;;;;;;22.50;16.80;;;;;;;6.09;79.58;99246.03;5087484;28;40922;-79
2020/12/16 18:15:46;;;;;;;22.83;17.23;;;;;;;6.06;79.32;99248.78;5087167;28;41579;-79
2020/12/16 18:18:14;;;;;;;22.17;17.43;;;;;;;6.02;79.39;99252.47;5172272;22;43441;-80
2020/12/16 18:20:41;;;;;;;24.97;18.47;;;;;;;5.88;79.58;99241.59;5069392;28;42315;-79
2020/12/16 18:23:11;;;;;;;26.37;18.87;;;;;;;5.88;79.52;99254.75;5087762;28;39859;-79
2020/12/16 18:25:39;;;;;;;22.83;17.50;;;;;;;5.92;79.37;99258.13;5086691;28;41513;-79
2020/12/16 18:28:07;;;;;;;23.00;16.97;;;;;;;5.88;79.93;99254.75;5174667;22;42277;-79
2020/12/16 18:30:35;;;;;;;26.97;19.50;;;;;;;5.83;79.68;99251.38;5087762;28;42133;-80
2020/12/16 18:33:05;;;;;;;23.77;17.70;;;;;;;5.66;79.66;99222.25;5088983;28;39744;-79
2020/12/16 18:35:33;;;;;;;23.73;17.83;;;;;;;5.77;79.97;99243.75;5070883;28;41838;-79
2020/12/16 18:38:00;;;;;;;24.90;17.20;;;;;;;5.75;79.94;99245.56;5090433;28;43573;-80
2020/12/16 18:40:28;;;;;;;24.40;16.97;;;;;;;5.61;79.72;99229.44;5169961;22;41977;-79
2020/12/16 18:42:55;;;;;;;31.30;18.40;;;;;;;5.69;79.88;99253.66;5070178;28;39846;-79
2020/12/16 18:45:23;;;;;;;35.23;21.03;;;;;;;5.58;80.05;99240.06;5068349;28;41619;-80
2020/12/16 18:47:50;;;;;;;31.27;19.07;;;;;;;5.54;80.16;99233.22;5066594;28;42954;-79
2020/12/16 18:50:17;;;;;;;30.50;21.20;;;;;;;5.57;79.56;99254.09;5090984;28;42193;-79
2020/12/16 18:52:48;;;;;;;40.67;29.10;;;;;;;5.55;79.73;99250.69;5141041;22;41117;-80
2020/12/16 18:55:15;;;;;;;35.87;23.93;;;;;;;5.47;79.87;99247.47;5050803;28;42556;-80
